Dades meteomassalio
Diari Summary for Abril 1, 2017 Units:  English    Metric   Both
« Previous Day
Next Day »
Diari Semanal Mensual Anual Personalitzat
  Maxima: Minima: Mijana:
Temperatura: TemperatureC °F 10.6 °F 12.8 °F
Rosada: DewpointC °F 3.6 °F 5.9 °F
Humitat: Humidity % 43 % 63 %
Velocitat del vent: WindSpeedKMH mph 0.0 mph 27.2 mph
Racha vent: WindSpeedGustKMH mph - -
Vent:- - WNW
Pressio: PressurehPa in 1016.8 in -
Pluja: 0.3 in    
Historical Graphs
 
 
Tabular Data for Abril 1, 2017
Time Temperature Dew Point Pressure Wind Wind Speed Wind Gust Humidity Rainfall Rate (Hourly) solar Conditions
TemperatureC °F DewpointC °F PressurehPa in Calm     Humidity % HourlyPrecipMM in SolarRadiationWatts/m^2 W/m2 Conditions
00:02 11.8 °F 10.3 °F 1017.5 in Calm     91 % 0.0 in 0.0 W/m2 RA
00:03 11.8 °F 10.3 °F 1017.5 in Calm     91 % 0.0 in 0.0 W/m2 RA
00:08 11.8 °F 10.4 °F 1017.5 in Calm     91 % 0.0 in 0.0 W/m2 CLR
00:13 11.7 °F 10.3 °F 1017.8 in Calm     91 % 0.0 in 0.0 W/m2 CLR
00:18 11.7 °F 10.3 °F 1017.8 in Calm     91 % 0.0 in 0.0 W/m2 CLR
00:23 11.8 °F 10.5 °F 1017.5 in Calm     92 % 0.0 in 0.0 W/m2 CLR
00:28 11.7 °F 10.4 °F 1017.8 in Calm     92 % 0.0 in 0.0 W/m2 CLR
00:33 11.6 °F 10.3 °F 1017.5 in Calm     92 % 0.0 in 0.0 W/m2 CLR
00:38 11.6 °F 10.3 °F 1017.8 in Calm     92 % 0.0 in 0.0 W/m2 CLR
00:43 11.6 °F 10.3 °F 1017.5 in Calm     92 % 0.0 in 0.0 W/m2 CLR
00:48 11.6 °F 10.3 °F 1017.5 in Calm     92 % 0.0 in 0.0 W/m2 CLR
00:53 11.6 °F 10.3 °F 1017.5 in Calm     92 % 0.0 in 0.0 W/m2 CLR
00:58 11.6 °F 10.3 °F 1017.2 in Calm     92 % 0.0 in 0.0 W/m2 CLR
01:03 11.4 °F 10.0 °F 1017.2 in Calm     91 % 0.0 in 0.0 W/m2 CLR
01:08 11.4 °F 10.0 °F 1017.2 in WSW 5.6 mph 5.6 mph 91 % 0.0 in 0.0 W/m2 CLR
01:13 11.8 °F 9.5 °F 1016.8 in West 13.0 mph 13.0 mph 86 % 0.0 in 0.0 W/m2 CLR
01:18 12.1 °F 9.3 °F 1016.8 in WSW 14.8 mph 14.8 mph 83 % 0.0 in 0.0 W/m2 CLR
01:23 12.5 °F 8.8 °F 1016.8 in West 18.5 mph 18.5 mph 78 % 0.0 in 0.0 W/m2 CLR
01:28 13.1 °F 8.3 °F 1016.8 in West 17.7 mph 17.7 mph 73 % 0.0 in 0.0 W/m2 CLR
01:33 13.3 °F 8.0 °F 1017.2 in West 22.2 mph 22.2 mph 70 % 0.0 in 0.0 W/m2 CLR
01:38 13.5 °F 7.9 °F 1016.8 in WNW 22.2 mph 22.2 mph 69 % 0.0 in 0.0 W/m2 CLR
01:43 13.7 °F 7.5 °F 1016.8 in West 24.1 mph 24.1 mph 66 % 0.0 in 0.0 W/m2 CLR
01:48 13.7 °F 7.5 °F 1016.8 in WSW 27.4 mph 27.4 mph 66 % 0.0 in 0.0 W/m2 CLR
01:53 13.4 °F 7.6 °F 1016.8 in West 18.5 mph 18.5 mph 68 % 0.0 in 0.0 W/m2 CLR
01:58 13.1 °F 7.7 °F 1017.2 in WSW 14.8 mph 14.8 mph 70 % 0.0 in 0.0 W/m2 CLR
02:03 12.9 °F 7.6 °F 1016.8 in WSW 20.4 mph 20.4 mph 70 % 0.0 in 0.0 W/m2 CLR
02:08 12.8 °F 7.7 °F 1016.8 in WSW 16.7 mph 16.7 mph 71 % 0.0 in 0.0 W/m2 CLR
02:13 12.8 °F 7.7 °F 1016.8 in West 14.8 mph 14.8 mph 71 % 0.0 in 0.0 W/m2 CLR
02:18 12.7 °F 7.6 °F 1016.8 in West 13.0 mph 13.0 mph 71 % 0.0 in 0.0 W/m2 CLR
02:23 12.6 °F 7.5 °F 1016.8 in WSW 18.5 mph 18.5 mph 71 % 0.0 in 0.0 W/m2 CLR
02:28 12.6 °F 7.5 °F 1016.8 in West 18.5 mph 18.5 mph 71 % 0.0 in 0.0 W/m2 CLR
02:33 12.5 °F 7.4 °F 1016.8 in WSW 7.4 mph 7.4 mph 71 % 0.0 in 0.0 W/m2 CLR
02:38 12.5 °F 7.2 °F 1016.8 in West 11.1 mph 11.1 mph 70 % 0.0 in 0.0 W/m2 CLR
02:43 12.8 °F 7.0 °F 1016.8 in West 24.1 mph 24.1 mph 68 % 0.0 in 0.0 W/m2 CLR
02:48 13.1 °F 6.6 °F 1016.8 in West 18.5 mph 18.5 mph 65 % 0.0 in 0.0 W/m2 CLR
02:53 13.3 °F 6.6 °F 1016.8 in West 22.5 mph 22.5 mph 64 % 0.0 in 0.0 W/m2 CLR
02:58 13.3 °F 6.4 °F 1016.8 in West 22.2 mph 22.2 mph 63 % 0.0 in 0.0 W/m2 CLR
03:03 13.3 °F 6.7 °F 1016.8 in West 25.9 mph 25.9 mph 64 % 0.0 in 0.0 W/m2 CLR
03:08 13.3 °F 6.6 °F 1016.8 in West 20.4 mph 20.4 mph 64 % 0.0 in 0.0 W/m2 CLR
03:13 13.0 °F 6.6 °F 1016.8 in West 22.2 mph 22.2 mph 65 % 0.0 in 0.0 W/m2 CLR
03:18 12.8 °F 6.6 °F 1016.8 in WNW 20.4 mph 20.4 mph 66 % 0.0 in 0.0 W/m2 CLR
03:23 12.6 °F 6.6 °F 1016.8 in WNW 18.5 mph 18.5 mph 67 % 0.0 in 0.0 W/m2 CLR
03:28 12.4 °F 6.5 °F 1016.8 in WNW 16.7 mph 16.7 mph 67 % 0.0 in 0.0 W/m2 CLR
03:33 12.3 °F 6.4 °F 1016.8 in West 20.9 mph 20.9 mph 67 % 0.0 in 0.0 W/m2 CLR
03:38 12.3 °F 6.4 °F 1016.8 in WNW 18.5 mph 18.5 mph 67 % 0.0 in 0.0 W/m2 CLR
03:43 12.2 °F 6.4 °F 1016.8 in West 18.5 mph 18.5 mph 68 % 0.0 in 0.0 W/m2 CLR
03:48 12.0 °F 6.3 °F 1016.8 in West 17.7 mph 17.7 mph 68 % 0.0 in 0.0 W/m2 CLR
03:53 12.1 °F 6.2 °F 1016.8 in West 19.3 mph 19.3 mph 67 % 0.0 in 0.0 W/m2 CLR
03:58 12.2 °F 6.2 °F 1016.8 in WNW 20.4 mph 20.4 mph 67 % 0.0 in 0.0 W/m2 CLR
04:03 12.1 °F 6.2 °F 1016.8 in WNW 18.5 mph 18.5 mph 67 % 0.0 in 0.0 W/m2 CLR
04:08 11.9 °F 6.2 °F 1016.8 in WNW 18.5 mph 18.5 mph 68 % 0.0 in 0.0 W/m2 CLR
04:13 11.7 °F 6.2 °F 1016.8 in WNW 18.5 mph 18.5 mph 69 % 0.0 in 0.0 W/m2 CLR
04:18 11.4 °F 6.1 °F 1016.8 in NW 14.8 mph 14.8 mph 70 % 0.0 in 0.0 W/m2 CLR
04:23 11.0 °F 6.2 °F 1017.2 in WNW 11.1 mph 11.1 mph 72 % 0.0 in 0.0 W/m2 CLR
04:28 10.7 °F 6.1 °F 1016.8 in West 3.7 mph 3.7 mph 73 % 0.0 in 0.0 W/m2 CLR
04:34 10.9 °F 6.1 °F 1016.8 in West 18.5 mph 18.5 mph 72 % 0.0 in 0.0 W/m2 CLR
04:39 11.1 °F 6.1 °F 1016.8 in West 20.4 mph 20.4 mph 71 % 0.0 in 0.0 W/m2 CLR
04:44 11.1 °F 6.0 °F 1016.8 in WNW 20.4 mph 20.4 mph 71 % 0.0 in 0.0 W/m2 CLR
04:49 10.9 °F 5.8 °F 1016.8 in WNW 18.5 mph 18.5 mph 71 % 0.0 in 0.0 W/m2 CLR
04:54 11.0 °F 5.7 °F 1016.8 in WNW 18.5 mph 18.5 mph 70 % 0.0 in 0.0 W/m2 CLR
04:59 10.8 °F 5.8 °F 1016.8 in West 18.5 mph 18.5 mph 71 % 0.0 in 0.0 W/m2 CLR
05:04 10.8 °F 5.6 °F 1016.8 in West 18.5 mph 18.5 mph 70 % 0.0 in 0.0 W/m2 CLR
05:09 10.9 °F 5.8 °F 1016.8 in WNW 18.5 mph 18.5 mph 71 % 0.0 in 0.0 W/m2 CLR
05:14 10.9 °F 5.6 °F 1016.8 in West 20.4 mph 20.4 mph 70 % 0.0 in 0.0 W/m2 CLR
05:19 10.9 °F 5.6 °F 1016.8 in West 18.5 mph 18.5 mph 70 % 0.0 in 0.0 W/m2 CLR
05:24 10.9 °F 5.4 °F 1016.8 in West 16.7 mph 16.7 mph 69 % 0.0 in 0.0 W/m2 CLR
05:29 10.9 °F 5.3 °F 1016.8 in WNW 19.3 mph 19.3 mph 68 % 0.0 in 0.0 W/m2 CLR
05:34 11.0 °F 5.3 °F 1016.8 in WNW 24.1 mph 24.1 mph 68 % 0.0 in 0.0 W/m2 CLR
05:39 11.0 °F 5.3 °F 1016.8 in WNW 18.5 mph 18.5 mph 68 % 0.0 in 0.0 W/m2 CLR
05:44 11.1 °F 5.2 °F 1017.2 in West 24.1 mph 24.1 mph 67 % 0.0 in 0.0 W/m2 CLR
05:49 11.1 °F 5.2 °F 1016.8 in West 18.5 mph 18.5 mph 67 % 0.0 in 0.0 W/m2 CLR
05:54 11.2 °F 5.3 °F 1016.8 in West 25.9 mph 25.9 mph 67 % 0.0 in 0.0 W/m2 CLR
05:59 11.2 °F 5.3 °F 1016.8 in West 24.1 mph 24.1 mph 67 % 0.0 in 0.0 W/m2 CLR
06:04 11.1 °F 5.2 °F 1016.8 in West 22.2 mph 22.2 mph 67 % 0.0 in 0.0 W/m2 CLR
06:09 11.0 °F 5.1 °F 1016.8 in West 24.1 mph 24.1 mph 67 % 0.0 in 0.0 W/m2 CLR
06:14 10.9 °F 5.1 °F 1016.8 in West 22.2 mph 22.2 mph 67 % 0.0 in 0.0 W/m2 CLR
06:19 10.8 °F 5.2 °F 1016.8 in West 22.2 mph 22.2 mph 68 % 0.0 in 0.0 W/m2 CLR
06:24 10.7 °F 5.1 °F 1016.8 in West 24.1 mph 24.1 mph 68 % 0.0 in 0.0 W/m2 CLR
06:29 10.8 °F 5.4 °F 1016.8 in WNW 24.1 mph 24.1 mph 69 % 0.0 in 0.0 W/m2 CLR
06:34 10.8 °F 5.3 °F 1016.8 in WNW 24.1 mph 24.1 mph 69 % 0.0 in 0.0 W/m2 CLR
06:39 10.7 °F 5.4 °F 1016.8 in WNW 24.1 mph 24.1 mph 70 % 0.0 in 0.0 W/m2 CLR
06:44 10.6 °F 5.6 °F 1016.8 in West 20.4 mph 20.4 mph 71 % 0.0 in 0.0 W/m2 CLR
06:49 10.6 °F 5.5 °F 1016.8 in West 22.5 mph 22.5 mph 71 % 0.0 in 0.0 W/m2 CLR
06:54 10.6 °F 5.3 °F 1016.8 in West 25.9 mph 25.9 mph 70 % 0.0 in 0.0 W/m2 CLR
06:59 10.6 °F 5.4 °F 1016.8 in WNW 24.1 mph 24.1 mph 70 % 0.0 in 0.0 W/m2 CLR
07:04 10.6 °F 5.4 °F 1016.8 in West 29.0 mph 29.0 mph 70 % 0.0 in 0.0 W/m2 CLR
07:09 10.7 °F 5.6 °F 1016.8 in West 31.5 mph 31.5 mph 71 % 0.3 in 0.0 W/m2 RA
07:14 10.6 °F 5.6 °F 1016.8 in WNW 29.6 mph 29.6 mph 71 % 0.3 in 0.0 W/m2 CLR
07:19 10.6 °F 5.8 °F 1016.8 in WNW 27.8 mph 27.8 mph 72 % 0.3 in 0.0 W/m2 CLR
07:24 10.6 °F 5.9 °F 1016.8 in WNW 24.1 mph 24.1 mph 73 % 0.3 in 0.0 W/m2 CLR
07:29 10.6 °F 5.9 °F 1017.2 in NW 24.1 mph 24.1 mph 73 % 0.3 in 0.0 W/m2 CLR
07:34 10.6 °F 5.9 °F 1017.2 in West 22.5 mph 22.5 mph 73 % 0.3 in 0.0 W/m2 OVC
07:39 10.6 °F 6.2 °F 1017.2 in WNW 18.5 mph 18.5 mph 74 % 0.3 in 0.0 W/m2 OVC
07:44 10.6 °F 6.1 °F 1017.5 in NW 24.1 mph 24.1 mph 74 % 0.3 in 5.0 W/m2 OVC
07:49 10.6 °F 6.1 °F 1017.2 in WNW 18.5 mph 18.5 mph 74 % 0.3 in 9.0 W/m2 BKN
07:54 10.6 °F 6.2 °F 1017.5 in WNW 18.5 mph 18.5 mph 74 % 0.3 in 7.0 W/m2 BKN
07:59 10.7 °F 6.2 °F 1017.5 in West 24.1 mph 24.1 mph 74 % 0.3 in 19.0 W/m2 BKN
08:04 10.8 °F 6.3 °F 1017.5 in WNW 19.3 mph 19.3 mph 74 % 0.3 in 26.0 W/m2 BKN
08:09 10.8 °F 6.2 °F 1017.5 in WNW 27.8 mph 27.8 mph 73 % 0.0 in 32.0 W/m2 BKN
08:14 10.8 °F 6.4 °F 1017.5 in WNW 24.1 mph 24.1 mph 74 % 0.0 in 33.0 W/m2 BKN
08:19 10.8 °F 6.3 °F 1017.5 in West 22.5 mph 22.5 mph 74 % 0.0 in 39.0 W/m2 BKN
08:24 10.8 °F 6.4 °F 1017.5 in West 22.2 mph 22.2 mph 74 % 0.0 in 53.0 W/m2 SCT
08:29 10.9 °F 6.4 °F 1017.5 in WNW 24.1 mph 24.1 mph 74 % 0.0 in 104.0 W/m2 CLR
08:34 11.1 °F 6.6 °F 1017.8 in NW 40.7 mph 40.7 mph 74 % 0.0 in 77.0 W/m2 CLR
08:39 11.1 °F 6.4 °F 1017.8 in NW 29.0 mph 29.0 mph 73 % 0.0 in 84.0 W/m2 FEW
08:44 11.2 °F 6.3 °F 1017.8 in WNW 31.5 mph 31.5 mph 72 % 0.0 in 79.0 W/m2 CLR
08:49 11.3 °F 6.4 °F 1017.8 in WNW 37.0 mph 37.0 mph 72 % 0.0 in 91.0 W/m2 CLR
08:54 11.3 °F 6.4 °F 1017.8 in NW 31.5 mph 31.5 mph 72 % 0.0 in 95.0 W/m2 CLR
08:59 11.3 °F 6.4 °F 1017.8 in NW 27.8 mph 27.8 mph 72 % 0.0 in 218.0 W/m2 CLR
09:04 11.3 °F 6.4 °F 1017.8 in West 29.6 mph 29.6 mph 72 % 0.0 in 207.0 W/m2 CLR
09:09 11.4 °F 6.3 °F 1017.8 in NW 19.3 mph 19.3 mph 71 % 0.0 in 214.0 W/m2 CLR
09:14 11.4 °F 6.3 °F 1017.8 in NW 30.6 mph 30.6 mph 71 % 0.0 in 230.0 W/m2 CLR
09:19 11.5 °F 6.4 °F 1018.2 in WNW 24.1 mph 24.1 mph 71 % 0.0 in 274.0 W/m2 CLR
09:24 11.6 °F 6.3 °F 1018.2 in WNW 38.6 mph 38.6 mph 70 % 0.0 in 281.0 W/m2 CLR
09:29 11.6 °F 6.5 °F 1018.2 in WNW 22.2 mph 22.2 mph 71 % 0.0 in 330.0 W/m2 CLR
09:34 11.7 °F 6.4 °F 1018.2 in NW 33.3 mph 33.3 mph 70 % 0.0 in 139.0 W/m2 CLR
09:39 11.4 °F 5.9 °F 1018.2 in NNW 31.5 mph 31.5 mph 69 % 0.0 in 155.0 W/m2 CLR
09:44 11.3 °F 6.0 °F 1018.2 in NW 32.2 mph 32.2 mph 70 % 0.0 in 137.0 W/m2 CLR
09:49 11.2 °F 5.9 °F 1018.2 in WNW 37.0 mph 37.0 mph 70 % 0.0 in 334.0 W/m2 CLR
09:54 11.3 °F 6.0 °F 1018.5 in NNW 31.5 mph 31.5 mph 70 % 0.0 in 267.0 W/m2 CLR
09:59 11.4 °F 5.9 °F 1018.5 in West 42.6 mph 42.6 mph 69 % 0.0 in 345.0 W/m2 CLR
10:04 11.6 °F 6.1 °F 1018.5 in NW 37.0 mph 37.0 mph 69 % 0.0 in 388.0 W/m2 CLR
10:09 11.6 °F 6.1 °F 1018.5 in NW 32.2 mph 32.2 mph 69 % 0.0 in 403.0 W/m2 CLR
10:14 11.7 °F 6.2 °F 1018.5 in NW 33.3 mph 33.3 mph 69 % 0.0 in 420.0 W/m2 CLR
10:19 11.8 °F 6.5 °F 1018.5 in NNW 27.8 mph 27.8 mph 70 % 0.0 in 450.0 W/m2 CLR
10:24 11.9 °F 6.4 °F 1018.5 in NNW 31.5 mph 31.5 mph 69 % 0.0 in 461.0 W/m2 CLR
10:29 11.9 °F 6.2 °F 1018.5 in NNW 33.3 mph 33.3 mph 68 % 0.0 in 439.0 W/m2 CLR
10:34 12.1 °F 6.6 °F 1018.5 in WNW 37.0 mph 37.0 mph 69 % 0.0 in 506.0 W/m2 CLR
10:39 12.1 °F 6.3 °F 1018.8 in NW 31.5 mph 31.5 mph 68 % 0.0 in 533.0 W/m2 CLR
10:44 12.1 °F 6.4 °F 1018.8 in NNW 35.2 mph 35.2 mph 68 % 0.0 in 547.0 W/m2 CLR
10:49 12.1 °F 6.4 °F 1018.5 in NNW 33.3 mph 33.3 mph 68 % 0.0 in 580.0 W/m2 CLR
10:54 12.3 °F 7.0 °F 1018.5 in NNW 27.8 mph 27.8 mph 70 % 0.0 in 606.0 W/m2 CLR
11:00 12.5 °F 6.8 °F 1018.5 in NW 33.3 mph 33.3 mph 68 % 0.0 in 606.0 W/m2 CLR
11:05 12.6 °F 6.8 °F 1018.5 in WNW 38.9 mph 38.9 mph 68 % 0.0 in 594.0 W/m2 CLR
11:10 12.7 °F 6.7 °F 1018.5 in WNW 37.0 mph 37.0 mph 67 % 0.0 in 612.0 W/m2 CLR
11:15 12.7 °F 6.7 °F 1018.5 in NNW 33.3 mph 33.3 mph 67 % 0.0 in 624.0 W/m2 CLR
11:20 12.7 °F 6.3 °F 1018.8 in NW 44.4 mph 44.4 mph 65 % 0.0 in 687.0 W/m2 CLR
11:25 12.8 °F 6.8 °F 1018.8 in WNW 48.1 mph 48.1 mph 67 % 0.0 in 721.0 W/m2 CLR
11:30 12.9 °F 6.5 °F 1018.8 in NW 37.0 mph 37.0 mph 65 % 0.0 in 260.0 W/m2 CLR
11:35 12.8 °F 6.6 °F 1018.8 in NNW 37.0 mph 37.0 mph 66 % 0.0 in 295.0 W/m2 CLR
11:40 12.6 °F 6.4 °F 1019.2 in NW 33.3 mph 33.3 mph 66 % 0.0 in 207.0 W/m2 CLR
11:45 12.7 °F 6.7 °F 1019.2 in North 29.0 mph 29.0 mph 67 % 0.0 in 211.0 W/m2 CLR
11:50 12.8 °F 6.8 °F 1019.2 in NNW 30.6 mph 30.6 mph 67 % 0.0 in 171.0 W/m2 CLR
11:55 12.7 °F 6.7 °F 1019.2 in NW 33.3 mph 33.3 mph 67 % 0.0 in 311.0 W/m2 CLR
12:00 12.8 °F 7.1 °F 1019.2 in NNW 18.5 mph 18.5 mph 68 % 0.0 in 163.0 W/m2 CLR
12:05 12.7 °F 6.3 °F 1019.2 in NNW 37.0 mph 37.0 mph 65 % 0.0 in 178.0 W/m2 CLR
12:10 12.9 °F 6.3 °F 1019.2 in NNW 42.6 mph 42.6 mph 64 % 0.0 in 214.0 W/m2 CLR
12:15 13.1 °F 6.4 °F 1019.2 in NNW 40.7 mph 40.7 mph 64 % 0.0 in 795.0 W/m2 CLR
12:20 13.4 °F 6.5 °F 1019.2 in NNW 40.7 mph 40.7 mph 63 % 0.0 in 942.0 W/m2 CLR
12:25 13.6 °F 6.4 °F 1019.2 in WNW 42.6 mph 42.6 mph 62 % 0.0 in 944.0 W/m2 CLR
12:30 13.6 °F 6.4 °F 1019.2 in NNW 32.2 mph 32.2 mph 62 % 0.0 in 323.0 W/m2 CLR
12:35 13.2 °F 6.3 °F 1019.2 in NW 35.2 mph 35.2 mph 63 % 0.0 in 248.0 W/m2 CLR
12:40 13.0 °F 6.1 °F 1019.2 in NW 29.6 mph 29.6 mph 63 % 0.0 in 313.0 W/m2 CLR
12:45 13.2 °F 6.3 °F 1019.2 in WNW 40.7 mph 40.7 mph 63 % 0.0 in 411.0 W/m2 CLR
12:50 13.3 °F 5.9 °F 1019.2 in West 27.8 mph 27.8 mph 61 % 0.0 in 353.0 W/m2 CLR
12:55 13.4 °F 6.3 °F 1019.2 in NW 25.9 mph 25.9 mph 62 % 0.0 in 299.0 W/m2 CLR
13:00 13.4 °F 6.1 °F 1019.2 in WNW 31.5 mph 31.5 mph 61 % 0.0 in 302.0 W/m2 CLR
13:05 13.4 °F 6.0 °F 1019.2 in NNW 35.4 mph 35.4 mph 61 % 0.0 in 352.0 W/m2 CLR
13:10 13.6 °F 5.9 °F 1019.2 in NNW 31.5 mph 31.5 mph 60 % 0.0 in 373.0 W/m2 CLR
13:15 13.7 °F 6.1 °F 1018.8 in NW 37.0 mph 37.0 mph 60 % 0.0 in 364.0 W/m2 CLR
13:20 13.6 °F 5.9 °F 1018.8 in NW 31.5 mph 31.5 mph 60 % 0.0 in 297.0 W/m2 CLR
13:25 14.3 °F 6.1 °F 1018.8 in NW 35.2 mph 35.2 mph 58 % 0.0 in 824.0 W/m2 CLR
13:31 14.6 °F 5.9 °F 1018.8 in NW 37.0 mph 37.0 mph 56 % 0.0 in 969.0 W/m2 CLR
13:35 14.9 °F 6.2 °F 1018.8 in NNW 37.0 mph 37.0 mph 56 % 0.0 in 930.0 W/m2 CLR
13:41 15.1 °F 6.1 °F 1018.5 in NW 46.3 mph 46.3 mph 55 % 0.0 in 965.0 W/m2 CLR
13:46 14.8 °F 5.6 °F 1018.5 in NW 38.6 mph 38.6 mph 54 % 0.0 in 937.0 W/m2 CLR
13:51 15.2 °F 5.9 °F 1018.5 in NW 40.7 mph 40.7 mph 54 % 0.0 in 947.0 W/m2 CLR
13:56 15.2 °F 6.5 °F 1018.5 in WNW 40.7 mph 40.7 mph 56 % 0.0 in 930.0 W/m2 CLR
14:01 15.4 °F 5.9 °F 1018.2 in North 37.0 mph 37.0 mph 53 % 0.0 in 875.0 W/m2 CLR
14:06 15.4 °F 5.8 °F 1018.5 in NNW 24.1 mph 24.1 mph 53 % 0.0 in 926.0 W/m2 CLR
14:11 15.2 °F 5.2 °F 1018.5 in North 37.0 mph 37.0 mph 51 % 0.0 in 144.0 W/m2 CLR
14:16 15.3 °F 5.5 °F 1018.5 in NNW 35.4 mph 35.4 mph 52 % 0.0 in 847.0 W/m2 CLR
14:21 15.3 °F 5.5 °F 1018.2 in North 40.7 mph 40.7 mph 52 % 0.0 in 875.0 W/m2 CLR
14:26 15.5 °F 5.9 °F 1018.2 in NW 37.0 mph 37.0 mph 53 % 0.0 in 893.0 W/m2 CLR
14:31 15.5 °F 5.4 °F 1018.2 in NW 46.3 mph 46.3 mph 51 % 0.0 in 905.0 W/m2 CLR
14:36 15.6 °F 5.8 °F 1018.2 in NNW 42.6 mph 42.6 mph 52 % 0.0 in 916.0 W/m2 CLR
14:41 15.7 °F 5.0 °F 1018.2 in NNW 40.2 mph 40.2 mph 49 % 0.0 in 886.0 W/m2 CLR
14:46 15.5 °F 4.8 °F 1018.2 in NNW 43.4 mph 43.4 mph 49 % 0.0 in 891.0 W/m2 CLR
14:51 15.7 °F 5.6 °F 1018.2 in NNW 38.9 mph 38.9 mph 51 % 0.0 in 837.0 W/m2 CLR
14:56 15.8 °F 5.1 °F 1018.2 in NW 48.1 mph 48.1 mph 49 % 0.0 in 831.0 W/m2 CLR
15:01 15.7 °F 5.0 °F 1018.2 in NNW 35.4 mph 35.4 mph 49 % 0.0 in 844.0 W/m2 CLR
15:06 15.9 °F 6.1 °F 1017.8 in NW 29.0 mph 29.0 mph 52 % 0.0 in 837.0 W/m2 CLR
15:11 15.8 °F 4.8 °F 1017.8 in NNW 40.7 mph 40.7 mph 48 % 0.0 in 169.0 W/m2 CLR
15:16 15.6 °F 4.9 °F 1017.8 in NNW 42.6 mph 42.6 mph 49 % 0.0 in 816.0 W/m2 CLR
15:21 15.9 °F 4.3 °F 1017.8 in North 46.7 mph 46.7 mph 46 % 0.0 in 826.0 W/m2 CLR
15:26 15.9 °F 5.2 °F 1017.8 in NW 42.6 mph 42.6 mph 49 % 0.0 in 877.0 W/m2 CLR
15:31 16.3 °F 4.6 °F 1017.8 in NW 48.1 mph 48.1 mph 46 % 0.0 in 826.0 W/m2 CLR
15:36 16.3 °F 4.6 °F 1017.8 in NNW 46.3 mph 46.3 mph 46 % 0.0 in 833.0 W/m2 CLR
15:41 16.1 °F 4.8 °F 1017.8 in NNW 48.3 mph 48.3 mph 47 % 0.0 in 197.0 W/m2 CLR
15:46 16.1 °F 4.8 °F 1017.8 in North 50.0 mph 50.0 mph 47 % 0.0 in 874.0 W/m2 CLR
15:51 16.4 °F 5.1 °F 1017.5 in NNW 50.0 mph 50.0 mph 47 % 0.0 in 837.0 W/m2 CLR
15:56 16.5 °F 5.2 °F 1017.5 in North 40.7 mph 40.7 mph 47 % 0.0 in 782.0 W/m2 CLR
16:01 16.5 °F 4.5 °F 1017.5 in NNW 48.1 mph 48.1 mph 45 % 0.0 in 747.0 W/m2 CLR
16:06 16.4 °F 4.8 °F 1017.5 in NW 37.0 mph 37.0 mph 46 % 0.0 in 728.0 W/m2 CLR
16:11 16.6 °F 3.9 °F 1017.5 in NW 48.1 mph 48.1 mph 43 % 0.0 in 717.0 W/m2 CLR
16:16 16.4 °F 4.4 °F 1017.5 in NNW 48.1 mph 48.1 mph 45 % 0.0 in 765.0 W/m2 CLR
16:21 16.6 °F 4.9 °F 1017.5 in North 44.4 mph 44.4 mph 46 % 0.0 in 708.0 W/m2 CLR
16:26 16.6 °F 5.2 °F 1017.5 in NNW 46.3 mph 46.3 mph 47 % 0.0 in 700.0 W/m2 CLR
16:31 16.4 °F 5.1 °F 1017.5 in NNW 50.0 mph 50.0 mph 47 % 0.0 in 738.0 W/m2 CLR
16:36 15.8 °F 4.8 °F 1017.5 in NW 35.4 mph 35.4 mph 48 % 0.0 in 737.0 W/m2 CLR
16:41 15.6 °F 5.2 °F 1017.5 in NNW 24.1 mph 24.1 mph 50 % 0.0 in 139.0 W/m2 CLR
16:46 15.5 °F 4.8 °F 1017.5 in WNW 44.4 mph 44.4 mph 49 % 0.0 in 91.0 W/m2 CLR
16:51 15.6 °F 4.9 °F 1017.5 in NNW 44.4 mph 44.4 mph 49 % 0.0 in 652.0 W/m2 CLR
16:56 15.7 °F 4.7 °F 1017.5 in NNW 44.4 mph 44.4 mph 48 % 0.0 in 626.0 W/m2 CLR
17:01 15.9 °F 5.5 °F 1017.5 in NNW 38.9 mph 38.9 mph 50 % 0.0 in 596.0 W/m2 CLR
17:06 15.6 °F 4.6 °F 1017.5 in NNW 42.6 mph 42.6 mph 48 % 0.0 in 626.0 W/m2 CLR
17:11 15.8 °F 3.9 °F 1017.5 in NNW 42.6 mph 42.6 mph 45 % 0.0 in 587.0 W/m2 CLR
17:16 15.9 °F 4.3 °F 1017.5 in North 33.3 mph 33.3 mph 46 % 0.0 in 573.0 W/m2 CLR
17:21 16.3 °F 3.7 °F 1017.5 in NNW 46.3 mph 46.3 mph 43 % 0.0 in 555.0 W/m2 CLR
17:26 16.4 °F 3.8 °F 1017.8 in NNW 35.2 mph 35.2 mph 43 % 0.0 in 534.0 W/m2 CLR
17:31 16.2 °F 3.6 °F 1017.8 in NW 48.1 mph 48.1 mph 43 % 0.0 in 517.0 W/m2 CLR
17:36 16.3 °F 4.0 °F 1017.8 in NNW 45.1 mph 45.1 mph 44 % 0.0 in 504.0 W/m2 CLR
17:41 15.8 °F 3.6 °F 1017.8 in NW 53.7 mph 53.7 mph 44 % 0.0 in 513.0 W/m2 CLR
17:46 15.7 °F 4.7 °F 1017.8 in NW 38.9 mph 38.9 mph 48 % 0.0 in 524.0 W/m2 CLR
17:51 15.7 °F 5.3 °F 1017.8 in WNW 35.2 mph 35.2 mph 50 % 0.0 in 510.0 W/m2 CLR
17:56 15.5 °F 5.4 °F 1017.8 in WNW 42.6 mph 42.6 mph 51 % 0.0 in 454.0 W/m2 CLR
18:01 15.3 °F 5.5 °F 1017.8 in WNW 42.6 mph 42.6 mph 52 % 0.0 in 420.0 W/m2 CLR
18:06 15.2 °F 5.4 °F 1017.8 in WNW 31.5 mph 31.5 mph 52 % 0.0 in 397.0 W/m2 CLR
18:11 15.1 °F 5.3 °F 1017.8 in NW 31.5 mph 31.5 mph 52 % 0.0 in 383.0 W/m2 CLR
18:16 15.1 °F 5.3 °F 1017.8 in West 38.9 mph 38.9 mph 52 % 0.0 in 371.0 W/m2 CLR
18:21 14.8 °F 5.6 °F 1017.8 in West 40.7 mph 40.7 mph 54 % 0.0 in 353.0 W/m2 CLR
18:26 14.9 °F 5.9 °F 1017.8 in WNW 31.5 mph 31.5 mph 55 % 0.0 in 332.0 W/m2 FEW
18:31 14.9 °F 5.4 °F 1018.2 in West 37.0 mph 37.0 mph 53 % 0.0 in 318.0 W/m2 BKN
18:36 14.8 °F 5.6 °F 1018.2 in West 31.5 mph 31.5 mph 54 % 0.0 in 62.0 W/m2 OVC
18:41 14.6 °F 5.3 °F 1018.2 in West 31.5 mph 31.5 mph 54 % 0.0 in 81.0 W/m2 OVC
18:46 14.6 °F 5.3 °F 1018.2 in WNW 27.8 mph 27.8 mph 54 % 0.0 in 239.0 W/m2 OVC
18:47 14.6 °F 5.4 °F 1018.2 in WNW 27.8 mph 27.8 mph 54 % 0.0 in 239.0 W/m2 OVC
18:52 14.3 °F 5.4 °F 1018.2 in NW 25.9 mph 25.9 mph 55 % 0.0 in 49.0 W/m2 OVC
18:57 14.3 °F 5.6 °F 1018.5 in WNW 19.3 mph 19.3 mph 56 % 0.0 in 79.0 W/m2 OVC
19:02 14.2 °F 5.5 °F 1018.5 in WNW 25.9 mph 25.9 mph 56 % 0.0 in 63.0 W/m2 OVC
19:07 14.1 °F 5.4 °F 1018.2 in WNW 25.9 mph 25.9 mph 56 % 0.0 in 63.0 W/m2 OVC
19:12 14.3 °F 5.6 °F 1018.5 in West 20.4 mph 20.4 mph 56 % 0.0 in 207.0 W/m2 OVC
19:17 14.5 °F 5.8 °F 1018.5 in WNW 20.4 mph 20.4 mph 56 % 0.0 in 167.0 W/m2 OVC
19:22 14.6 °F 5.3 °F 1018.5 in NW 29.0 mph 29.0 mph 54 % 0.0 in 148.0 W/m2 OVC
19:27 14.7 °F 5.2 °F 1018.5 in NW 29.6 mph 29.6 mph 53 % 0.0 in 116.0 W/m2 OVC
19:32 14.9 °F 5.1 °F 1018.5 in NW 24.1 mph 24.1 mph 52 % 0.0 in 93.0 W/m2 OVC
19:37 14.9 °F 4.6 °F 1018.8 in NW 31.5 mph 31.5 mph 50 % 0.0 in 72.0 W/m2 OVC
19:42 14.8 °F 4.4 °F 1018.8 in NW 32.2 mph 32.2 mph 50 % 0.0 in 53.0 W/m2 OVC
19:47 14.6 °F 4.5 °F 1018.8 in NW 33.3 mph 33.3 mph 51 % 0.0 in 19.0 W/m2 OVC
19:52 14.2 °F 4.8 °F 1018.8 in NW 31.5 mph 31.5 mph 53 % 0.0 in 18.0 W/m2 OVC
19:57 14.0 °F 4.3 °F 1018.8 in NNW 27.8 mph 27.8 mph 52 % 0.0 in 14.0 W/m2 OVC
20:02 13.8 °F 4.4 °F 1018.8 in NW 24.1 mph 24.1 mph 53 % 0.0 in 12.0 W/m2 OVC
20:07 13.7 °F 4.6 °F 1018.8 in NW 27.8 mph 27.8 mph 54 % 0.0 in 11.0 W/m2 OVC
20:12 13.6 °F 4.4 °F 1018.8 in WNW 22.2 mph 22.2 mph 54 % 0.0 in 9.0 W/m2 OVC
20:17 13.4 °F 4.6 °F 1018.8 in NW 24.1 mph 24.1 mph 55 % 0.0 in 7.0 W/m2 OVC
20:22 13.4 °F 4.5 °F 1018.8 in NNW 20.4 mph 20.4 mph 55 % 0.0 in 5.0 W/m2 OVC
20:27 13.3 °F 4.7 °F 1018.8 in NW 27.8 mph 27.8 mph 56 % 0.0 in 0.0 W/m2 OVC
20:32 13.3 °F 4.7 °F 1018.8 in NW 18.5 mph 18.5 mph 56 % 0.0 in 0.0 W/m2 OVC
20:37 13.2 °F 4.6 °F 1019.2 in WNW 16.7 mph 16.7 mph 56 % 0.0 in 0.0 W/m2 CLR
20:42 13.1 °F 4.5 °F 1019.2 in WNW 24.1 mph 24.1 mph 56 % 0.0 in 0.0 W/m2 CLR
20:47 13.1 °F 4.8 °F 1019.2 in NW 22.2 mph 22.2 mph 57 % 0.0 in 0.0 W/m2 CLR
20:52 13.1 °F 4.8 °F 1019.5 in NNW 20.4 mph 20.4 mph 57 % 0.0 in 0.0 W/m2 CLR
20:57 13.2 °F 4.8 °F 1019.5 in NW 18.5 mph 18.5 mph 57 % 0.0 in 0.0 W/m2 CLR
21:02 13.2 °F 4.9 °F 1019.9 in NNW 22.5 mph 22.5 mph 57 % 0.0 in 0.0 W/m2 CLR
21:07 13.1 °F 4.8 °F 1019.9 in NW 20.9 mph 20.9 mph 57 % 0.0 in 0.0 W/m2 CLR
21:12 13.1 °F 4.7 °F 1020.2 in North 24.1 mph 24.1 mph 57 % 0.0 in 0.0 W/m2 CLR
21:17 12.9 °F 4.6 °F 1020.2 in NNW 24.1 mph 24.1 mph 57 % 0.0 in 0.0 W/m2 CLR
21:22 12.9 °F 4.3 °F 1020.5 in NW 25.9 mph 25.9 mph 56 % 0.0 in 0.0 W/m2 CLR
21:23 12.8 °F 4.3 °F 1020.5 in NNW 25.9 mph 25.9 mph 56 % 0.0 in 0.0 W/m2 CLR
21:28 12.8 °F 4.2 °F 1020.5 in NNW 31.5 mph 31.5 mph 56 % 0.0 in 0.0 W/m2 CLR
21:33 12.6 °F 4.1 °F 1020.9 in NNW 31.5 mph 31.5 mph 56 % 0.0 in 0.0 W/m2 CLR
21:38 12.6 °F 3.8 °F 1020.9 in NNW 40.7 mph 40.7 mph 55 % 0.0 in 0.0 W/m2 CLR
21:43 12.6 °F 4.1 °F 1020.9 in NNW 31.5 mph 31.5 mph 56 % 0.0 in 0.0 W/m2 CLR
21:48 12.4 °F 4.1 °F 1020.9 in NNW 31.5 mph 31.5 mph 57 % 0.0 in 0.0 W/m2 CLR
21:53 12.3 °F 4.1 °F 1020.9 in NNW 25.9 mph 25.9 mph 57 % 0.0 in 0.0 W/m2 CLR
21:58 12.3 °F 4.2 °F 1021.2 in NW 24.1 mph 24.1 mph 58 % 0.0 in 0.0 W/m2 CLR
22:03 12.1 °F 4.3 °F 1021.2 in WNW 22.2 mph 22.2 mph 59 % 0.0 in 0.0 W/m2 CLR
22:08 11.9 °F 4.4 °F 1021.2 in WNW 11.1 mph 11.1 mph 60 % 0.0 in 0.0 W/m2 CLR
22:13 11.8 °F 4.5 °F 1021.2 in NW 18.5 mph 18.5 mph 61 % 0.0 in 0.0 W/m2 CLR
22:18 11.7 °F 4.7 °F 1021.2 in NW 14.8 mph 14.8 mph 62 % 0.0 in 0.0 W/m2 CLR
22:23 11.6 °F 4.6 °F 1021.2 in West 14.8 mph 14.8 mph 62 % 0.0 in 0.0 W/m2 CLR
22:28 11.6 °F 4.5 °F 1021.2 in WNW 1.9 mph   62 % 0.0 in 0.0 W/m2 CLR
22:33 11.6 °F 4.7 °F 1021.2 in NW 20.4 mph 20.4 mph 63 % 0.0 in 0.0 W/m2 CLR
22:38 11.6 °F 4.6 °F 1021.2 in WNW 25.9 mph 25.9 mph 62 % 0.0 in 0.0 W/m2 CLR
22:43 11.6 °F 4.5 °F 1021.2 in NW 24.1 mph 24.1 mph 62 % 0.0 in 0.0 W/m2 CLR
22:48 11.5 °F 4.4 °F 1021.6 in NW 20.4 mph 20.4 mph 62 % 0.0 in 0.0 W/m2 CLR
22:53 11.4 °F 4.3 °F 1021.6 in NW 38.9 mph 38.9 mph 62 % 0.0 in 0.0 W/m2 CLR
22:58 11.3 °F 4.3 °F 1021.2 in NW 24.1 mph 24.1 mph 62 % 0.0 in 0.0 W/m2 CLR
23:03 11.2 °F 4.2 °F 1021.2 in NNW 18.5 mph 18.5 mph 62 % 0.0 in 0.0 W/m2 CLR
23:08 11.1 °F 4.3 °F 1021.2 in WNW 20.4 mph 20.4 mph 63 % 0.0 in 0.0 W/m2 CLR
23:13 10.9 °F 4.3 °F 1021.2 in WNW 14.8 mph 14.8 mph 64 % 0.0 in 0.0 W/m2 CLR
23:18 10.9 °F 4.3 °F 1021.2 in West 20.4 mph 20.4 mph 64 % 0.0 in 0.0 W/m2 CLR
23:23 10.9 °F 4.3 °F 1021.2 in WNW 27.8 mph 27.8 mph 64 % 0.0 in 0.0 W/m2 CLR
23:28 10.7 °F 4.4 °F 1021.2 in WNW 25.7 mph 25.7 mph 65 % 0.0 in 0.0 W/m2 CLR
23:33 10.7 °F 4.3 °F 1021.2 in WNW 18.5 mph 18.5 mph 65 % 0.0 in 0.0 W/m2 CLR
23:38 10.6 °F 4.3 °F 1021.2 in West 20.4 mph 20.4 mph 65 % 0.0 in 0.0 W/m2 CLR
23:43 10.7 °F 4.4 °F 1021.6 in WNW 33.3 mph 33.3 mph 65 % 0.0 in 0.0 W/m2 CLR
23:48 10.8 °F 4.4 °F 1021.2 in WNW 18.5 mph 18.5 mph 65 % 0.0 in 0.0 W/m2 CLR
23:53 10.6 °F 4.3 °F 1021.6 in WNW 20.4 mph 20.4 mph 65 % 0.0 in 0.0 W/m2 CLR
23:58 10.6 °F 4.4 °F 1021.2 in West 27.4 mph 27.4 mph 66 % 0.0 in 0.0 W/m2 CLR
23:59 10.6 °F 4.2 °F 1021.2 in WNW 31.5 mph 31.5 mph 65 % 0.0 in 0.0 W/m2 CLR
Lo Temps de Massalio
Compliments of Weather Underground - 1.25 mb